• Join FlightAware (Why Join?)
  • Login
  • US Flag 
 
07:44AM EST


 

Airport Tracker/Info


-or-


 

Live Flight TrackerFlight Track Log ✈ VH-JET ✈ 04-Oct-2013 ✈ YBCG / OOL - YSCN / CDU

Flight Track Log - Related Links

Times and Time Zones

All times are in EDT time to prevent confusion due to time zone crossing. See the VH-JET flight status page for this flight to view local times or setup timezone preferences in your user account.

Time Position Orientation Groundspeed Altitude Reporting Facility
EDT Latitude Longitude Course Direction KTS MPH feet Rate Location/Type
11:10PM -28.1812 153.5119 219° Southwest 100 115 1,400  Level Aus ATC (RADAR)
11:11PM -28.1876 153.5061 219° Southwest 106 122 1,800 1,560 Climbing Aus ATC (RADAR)
11:11PM -28.2030 153.4913 220° Southwest 122 140 2,700 1,620 Climbing Aus ATC (RADAR)
11:12PM -28.2317 153.4703 213° Southwest 133 153 4,300 1,680 Climbing Aus ATC (RADAR)
11:13PM -28.2522 153.4520 218° Southwest 141 162 5,400 1,620 Climbing Aus ATC (RADAR)
11:14PM -28.2836 153.4294 212° Southwest 144 166 6,900 1,860 Climbing Aus ATC (RADAR)
11:14PM -28.3022 153.4161 212° Southwest 134 154 8,200 1,620 Climbing Aus ATC (RADAR)
11:16PM -28.3434 153.3908 208° Southwest 131 151 10,100 1,440 Climbing Aus ATC (RADAR)
11:16PM -28.3513 153.3852 212° Southwest 132 152 10,500 1,440 Climbing Aus ATC (RADAR)
11:16PM -28.3702 153.3728 210° Southwest 135 155 11,300 1,560 Climbing Aus ATC (RADAR)
11:17PM -28.4009 153.3535 209° Southwest 125 144 13,000 1,620 Climbing Aus ATC (RADAR)
11:18PM -28.4191 153.3419 209° Southwest 128 147 13,900 1,380 Climbing Aus ATC (RADAR)
11:19PM -28.4483 153.3232 209° Southwest 132 152 15,100 1,320 Climbing Aus ATC (RADAR)
11:19PM -28.4676 153.3107 210° Southwest 137 158 15,900 1,500 Climbing Aus ATC (RADAR)
11:21PM -28.5143 153.2802 210° Southwest 135 155 18,100 1,560 Climbing Aus ATC (RADAR)
11:21PM -28.5225 153.2751 208° Southwest 134 154 18,500 1,440 Climbing Aus ATC (RADAR)
11:22PM -28.5418 153.2635 208° Southwest 135 155 19,300 1,380 Climbing Aus ATC (RADAR)
11:23PM -28.5741 153.2433 209° Southwest 133 153 20,700 1,380 Climbing Aus ATC (RADAR)
11:23PM -28.5926 153.2314 210° Southwest 131 151 21,500 840 Climbing Aus ATC (RADAR)
11:24PM -28.6290 153.2075 210° Southwest 148 170 22,100 420 Climbing Aus ATC (RADAR)
11:25PM -28.6425 153.1979 212° Southwest 164 189 22,100  Level Aus ATC (RADAR)
11:26PM -28.7210 153.1475 209° Southwest 202 232 22,100  Level Aus ATC (RADAR)
11:27PM -28.7333 153.1397 209° Southwest 203 234 22,100  Level Aus ATC (RADAR)
11:27PM -28.7581 153.1234 210° Southwest 206 237 22,100  Level Aus ATC (RADAR)
11:28PM -28.8162 153.0853 210° Southwest 208 239 22,100  Level Aus ATC (RADAR)
11:29PM -28.8502 153.0634 210° Southwest 211 243 22,100  Level Aus ATC (RADAR)
11:31PM -28.9498 153.0008 209° Southwest 215 247 22,100  Level Aus ATC (RADAR)
11:32PM -28.9929 152.9736 209° Southwest 213 245 22,100  Level Aus ATC (RADAR)
11:32PM -29.0097 152.9621 211° Southwest 212 244 22,100  Level Aus ATC (RADAR)
11:33PM -29.0401 152.9440 208° Southwest 212 244 22,100  Level Aus ATC (RADAR)
11:34PM -29.0915 152.9102 210° Southwest 213 245 22,100  Level Aus ATC (RADAR)
11:34PM -29.1218 152.8917 208° Southwest 212 244 22,100  Level Aus ATC (RADAR)
11:36PM -29.1998 152.8423 209° Southwest 214 246 22,100  Level Aus ATC (RADAR)
11:36PM -29.2385 152.8176 209° Southwest 213 245 22,100  Level Aus ATC (RADAR)
11:37PM -29.2512 152.8094 209° Southwest 211 243 22,100  Level Aus ATC (RADAR)
11:37PM -29.2814 152.7906 208° Southwest 212 244 22,100  Level Aus ATC (RADAR)
11:38PM -29.3238 152.7630 210° Southwest 210 242 22,100  Level Aus ATC (RADAR)
11:39PM -29.3578 152.7427 208° Southwest 206 237 22,100  Level Aus ATC (RADAR)
11:40PM -29.3994 152.7163 209° Southwest 205 236 22,100  Level Aus ATC (RADAR)
11:41PM -29.4655 152.6723 210° Southwest 207 238 22,100  Level Aus ATC (RADAR)
11:42PM -29.4953 152.6562 205° Southwest 206 237 22,100  Level Aus ATC (RADAR)
11:42PM -29.5176 152.6465 201° Southwest 206 237 22,100  Level Aus ATC (RADAR)
11:43PM -29.5541 152.6311 200° South 209 241 22,100  Level Aus ATC (RADAR)
11:43PM -29.5906 152.6151 201° Southwest 211 243 22,100  Level Aus ATC (RADAR)
11:44PM -29.6314 152.5969 201° Southwest 210 242 22,100  Level Aus ATC (RADAR)
11:45PM -29.6903 152.5706 201° Southwest 210 242 22,100  Level Aus ATC (RADAR)
11:47PM -29.7721 152.5342 201° Southwest 210 242 22,100  Level Aus ATC (RADAR)
11:47PM -29.7904 152.5256 202° Southwest 212 244 22,100  Level Aus ATC (RADAR)
11:48PM -29.8269 152.5093 201° Southwest 212 244 22,100  Level Aus ATC (RADAR)
11:49PM -29.8772 152.4866 201° Southwest 212 244 22,100  Level Aus ATC (RADAR)
11:49PM -29.9094 152.4719 202° Southwest 213 245 22,100  Level Aus ATC (RADAR)
11:50PM -29.9654 152.4478 200° South 214 246 22,100  Level Aus ATC (RADAR)
11:52PM -30.0529 152.4079 202° Southwest 215 247 22,100  Level Aus ATC (RADAR)
11:52PM -30.0669 152.4019 201° Southwest 215 247 22,100  Level Aus ATC (RADAR)
11:53PM -30.1037 152.3851 202° Southwest 214 246 22,100  Level Aus ATC (RADAR)
11:54PM -30.1543 152.3628 201° Southwest 212 244 22,100  Level Aus ATC (RADAR)
11:54PM -30.1865 152.3480 202° Southwest 214 246 22,100  Level Aus ATC (RADAR)
11:55PM -30.2326 152.3275 201° Southwest 214 246 22,100  Level Aus ATC (RADAR)
11:57PM -30.3261 152.2856 201° Southwest 217 250 22,100  Level Aus ATC (RADAR)
11:57PM -30.3401 152.2789 202° Southwest 217 250 22,100  Level Aus ATC (RADAR)
11:57PM -30.3730 152.2641 201° Southwest 218 251 22,100  Level Aus ATC (RADAR)
11:59PM -30.4360 152.2413 197° South 220 253 22,100  Level Aus ATC (RADAR)
11:59PM -30.4598 152.2311 200° South 220 253 22,100  Level Aus ATC (RADAR)
12:00AM -30.5112 152.2113 198° South 239 275 22,100  Level Aus ATC (RADAR)
12:02AM -30.6143 152.1557 205° Southwest 219 252 22,100  Level Aus ATC (RADAR)
12:02AM -30.6286 152.1493 201° Southwest 219 252 22,100  Level Aus ATC (RADAR)
12:03AM -30.6616 152.1342 202° Southwest 221 254 22,100  Level Aus ATC (RADAR)
12:03AM -30.7146 152.1106 201° Southwest 223 257 22,100  Level Aus ATC (RADAR)
12:04AM -30.7480 152.0951 202° Southwest 222 255 22,100  Level Aus ATC (RADAR)
12:05AM -30.8046 152.0687 202° Southwest 222 255 22,100  Level Aus ATC (RADAR)
12:06AM -30.8721 152.0385 201° Southwest 224 258 22,100  Level Aus ATC (RADAR)
12:07AM -30.9058 152.0230 201° Southwest 223 257 22,100  Level Aus ATC (RADAR)
12:07AM -30.9204 152.0165 201° Southwest 225 259 22,100  Level Aus ATC (RADAR)
12:08AM -30.9542 152.0011 201° Southwest 225 259 22,100  Level Aus ATC (RADAR)
12:09AM -31.0124 151.9742 202° Southwest 226 260 22,100  Level Aus ATC (RADAR)
12:09AM -31.0468 151.9587 201° Southwest 228 262 22,100  Level Aus ATC (RADAR)
12:10AM -31.1007 151.9346 201° Southwest 229 264 22,100  Level Aus ATC (RADAR)
12:11AM -31.1794 151.8982 202° Southwest 231 266 22,100  Level Aus ATC (RADAR)
12:12AM -31.2139 151.8822 202° Southwest 229 264 22,100  Level Aus ATC (RADAR)
12:12AM -31.2338 151.8732 201° Southwest 230 265 22,100  Level Aus ATC (RADAR)
12:13AM -31.2682 151.8571 202° Southwest 228 262 22,100  Level Aus ATC (RADAR)
12:14AM -31.3228 151.8317 202° Southwest 232 267 22,100  Level Aus ATC (RADAR)
12:14AM -31.3577 151.8163 201° Southwest 230 265 22,100  Level Aus ATC (RADAR)
12:15AM -31.4176 151.7905 200° South 230 265 22,100  Level Aus ATC (RADAR)
12:17AM -31.4958 151.7530 202° Southwest 229 264 22,100  Level Aus ATC (RADAR)
12:17AM -31.5155 151.7435 202° Southwest 229 264 22,100  Level Aus ATC (RADAR)
12:18AM -31.5500 151.7277 201° Southwest 229 264 22,100  Level Aus ATC (RADAR)
12:19AM -31.6039 151.7028 202° Southwest 227 261 22,100  Level Aus ATC (RADAR)
12:19AM -31.6384 151.6875 201° Southwest 228 262 22,100  Level Aus ATC (RADAR)
12:20AM -31.6960 151.6560 205° Southwest 228 262 22,100  Level Aus ATC (RADAR)
12:21AM -31.7290 151.6353 208° Southwest 231 266 22,100  Level Aus ATC (RADAR)
12:22AM -31.7944 151.5945 208° Southwest 227 261 22,100  Level Aus ATC (RADAR)
12:22AM -31.8083 151.5858 208° Southwest 227 261 22,100  Level Aus ATC (RADAR)
12:23AM -31.8409 151.5653 208° Southwest 228 262 22,100  Level Aus ATC (RADAR)
12:24AM -31.8965 151.5302 208° Southwest 226 260 22,100  Level Aus ATC (RADAR)
12:24AM -31.9284 151.5107 207° Southwest 223 257 22,100 60 Level Aus ATC (RADAR)
12:25AM -31.9786 151.4788 208° Southwest 224 258 22,200 60 Climbing Aus ATC (RADAR)
12:26AM -32.0100 151.4591 208° Southwest 221 254 22,200  Level Aus ATC (RADAR)
12:27AM -32.0681 151.4223 208° Southwest 220 253 22,200  Level Aus ATC (RADAR)
12:27AM -32.0816 151.4140 208° Southwest 218 251 22,200  Level Aus ATC (RADAR)
12:28AM -32.1173 151.3915 208° Southwest 219 252 22,200  Level Aus ATC (RADAR)
12:29AM -32.1658 151.3610 208° Southwest 216 249 22,200  Level Aus ATC (RADAR)
12:29AM -32.1982 151.3396 209° Southwest 216 249 22,200  Level Aus ATC (RADAR)
12:30AM -32.2516 151.3062 208° Southwest 217 250 22,200  Level Aus ATC (RADAR)
12:31AM -32.2831 151.2861 208° Southwest 217 250 22,200  Level Aus ATC (RADAR)
12:32AM -32.3464 151.2459 208° Southwest 220 253 22,200  Level Aus ATC (RADAR)
12:32AM -32.3600 151.2374 208° Southwest 219 252 22,200  Level Aus ATC (RADAR)
12:33AM -32.3916 151.2177 208° Southwest 218 251 22,200  Level Aus ATC (RADAR)
12:34AM -32.4398 151.1869 208° Southwest 220 253 22,200  Level Aus ATC (RADAR)
12:34AM -32.4728 151.1658 208° Southwest 222 255 22,200  Level Aus ATC (RADAR)
12:35AM -32.5225 151.1326 209° Southwest 223 257 22,200  Level Aus ATC (RADAR)
12:36AM -32.5594 151.1103 207° Southwest 222 255 22,200  Level Aus ATC (RADAR)
12:38AM -32.6501 151.0525 208° Southwest 225 259 22,200  Level Aus ATC (RADAR)
12:38AM -32.6649 151.0434 207° Southwest 224 258 22,200  Level Aus ATC (RADAR)
12:38AM -32.6953 151.0236 209° Southwest 222 255 22,200  Level Aus ATC (RADAR)
12:39AM -32.7415 150.9939 208° Southwest 225 259 22,200  Level Aus ATC (RADAR)
12:40AM -32.7734 150.9746 207° Southwest 223 257 22,200 -600 Level Aus ATC (RADAR)
12:41AM -32.8265 150.9506 201° Southwest 220 253 21,300 -1,080 Descending Aus ATC (RADAR)
12:42AM -32.8812 150.9297 198° South 206 237 20,200 -1,140 Descending Aus ATC (RADAR)
12:42AM -32.9179 150.9162 197° South 204 235 19,500 -1,140 Descending Aus ATC (RADAR)
12:43AM -32.9315 150.9110 198° South 204 235 19,200 -1,200 Descending Aus ATC (RADAR)
12:43AM -32.9649 150.8985 197° South 209 241 18,500 -1,140 Descending Aus ATC (RADAR)
12:44AM -33.0070 150.8831 197° South 211 243 17,700 -1,140 Descending Aus ATC (RADAR)
12:45AM -33.0399 150.8709 197° South 213 245 17,000 -1,140 Descending Aus ATC (RADAR)
12:46AM -33.0915 150.8514 198° South 212 244 16,000 -1,200 Descending Aus ATC (RADAR)
12:46AM -33.1240 150.8395 197° South 212 244 15,300 -1,140 Descending Aus ATC (RADAR)
12:47AM -33.1885 150.8152 197° South 208 239 14,100 -1,080 Descending Aus ATC (RADAR)
12:48AM -33.2023 150.8101 197° South 208 239 13,800 -1,380 Descending Aus ATC (RADAR)
12:48AM -33.2392 150.7973 196° South 211 243 12,900 -1,200 Descending Aus ATC (RADAR)
12:49AM -33.2985 150.7876 188° South 210 242 11,800 -1,140 Descending Aus ATC (RADAR)
12:50AM -33.3323 150.7858 183° South 211 243 11,100 -1,140 Descending Aus ATC (RADAR)
12:51AM -33.3873 150.7841 181° South 218 251 10,100 -1,140 Descending Aus ATC (RADAR)
12:51AM -33.4241 150.7829 182° South 229 264 9,400 -1,320 Descending Aus ATC (RADAR)
12:52AM -33.4989 150.7808 181° South 231 266 7,900 -1,260 Descending Aus ATC (RADAR)
12:53AM -33.5186 150.7804 181° South 221 254 7,600 -1,020 Descending Aus ATC (RADAR)
12:53AM -33.5451 150.7795 181° South 220 253 7,100 -1,140 Descending Aus ATC (RADAR)
12:54AM -33.6103 150.7756 183° South 216 249 5,900 -960 Descending Aus ATC (RADAR)
12:55AM -33.6448 150.7678 191° South 214 246 5,600 -540 Descending Aus ATC (RADAR)
12:56AM -33.7007 150.7564 190° South 225 259 5,100 -540 Descending Aus ATC (RADAR)
12:56AM -33.7362 150.7489 190° South 219 252 4,800 -540 Descending Aus ATC (RADAR)
12:57AM -33.7971 150.7365 190° South 186 214 4,200 -480 Descending Aus ATC (RADAR)
12:58AM -33.8133 150.7333 189° South 180 207 4,100 -480 Descending Aus ATC (RADAR)
12:58AM -33.8416 150.7272 190° South 179 206 3,800 -480 Descending Aus ATC (RADAR)
12:59AM -33.8870 150.7198 188° South 179 206 3,400 -540 Descending Aus ATC (RADAR)
01:00AM -33.9159 150.7172 184° South 180 207 3,000 -660 Descending Aus ATC (RADAR)
01:01AM -33.9570 150.7096 189° South 182 209 2,500 -540 Descending Aus ATC (RADAR)
01:01AM -33.9843 150.6949 204° Southwest 179 206 2,300 -360 Descending Aus ATC (RADAR)
01:02AM -34.0116 150.6422 238° Southwest 174 200 2,000 -420 Descending Aus ATC (RADAR)
01:03AM -34.0193 150.6320 227° Southwest 165 190 1,800 -960 Descending Aus ATC (RADAR)
01:03AM -34.0426 150.6378 168° South 157 181 1,200 -900 Descending Aus ATC (RADAR)
01:04AM -34.0417 150.6777 89° East 129 148 400 -840 Descending Aus ATC (RADAR)
01:04AM -34.0384 150.6859 64° Northeast 117 135 200 -780 Descending Aus ATC (RADAR)
01:06AM -34.0403 150.6872 150° Southeast  Level Estimated
01:13AM -34.0403 150.6872 40° Northeast  Level Estimated
01:14AM -34.0403 150.6872 40° Northeast  Level Estimated
01:15AM -34.0403 150.6872 40° Northeast  Level Estimated
01:16AM -34.0403 150.6872 40° Northeast  Level Estimated
01:17AM -34.0403 150.6872 40° Northeast  Level Estimated
01:18AM -34.0403 150.6872 40° Northeast  Level Estimated
01:19AM -34.0403 150.6872 40° Northeast  Level Estimated